Time;durP1;ratioP1;P1;durP2;ratioP2;P2;SDS_P1;SDS_P2;PMS_P1;PMS_P2;Temp;Humidity;BMP_temperature;BMP_pressure;BME280_temperature;BME280_humidity;BME280_pressure;Samples;Min_cycle;Max_cycle;Signal;HPM_P1;HPM_P2
2021/04/05 00:00:18;;;;;;;17.20;10.43;;;;;;;;;;5033369;28;20178;-85
2021/04/05 00:02:44;;;;;;;18.60;11.60;;;;;;;;;;5046013;28;20628;-83
2021/04/05 00:05:18;;;;;;;22.75;11.70;;;;;;;;;;5040081;28;20177;-84
2021/04/05 00:07:45;;;;;;;16.42;11.40;;;;;;;;;;5037594;28;20185;-84
2021/04/05 00:10:22;;;;;;;24.98;12.43;;;;;;;;;;5039139;28;20250;-83
2021/04/05 00:12:48;;;;;;;18.80;10.30;;;;;;;;;;5032492;28;20709;-84
2021/04/05 00:15:14;;;;;;;18.75;11.43;;;;;;;;;;5027531;28;20198;-84
2021/04/05 00:17:41;;;;;;;19.30;11.15;;;;;;;;;;5029741;28;20269;-84
2021/04/05 00:20:15;;;;;;;18.05;11.90;;;;;;;;;;5038997;28;20171;-85
2021/04/05 00:22:42;;;;;;;17.67;10.55;;;;;;;;;;5046828;28;20182;-85
2021/04/05 00:25:08;;;;;;;16.13;11.55;;;;;;;;;;5046549;28;20174;-85
2021/04/05 00:27:34;;;;;;;23.25;11.85;;;;;;;;;;5030228;28;20178;-84
2021/04/05 00:30:00;;;;;;;18.10;10.10;;;;;;;;;;5043373;28;20297;-84
2021/04/05 00:32:26;;;;;;;17.98;12.05;;;;;;;;;;5030883;28;20261;-84
2021/04/05 00:34:52;;;;;;;21.42;11.55;;;;;;;;;;5031326;28;20189;-84
2021/04/05 00:37:18;;;;;;;16.67;10.63;;;;;;;;;;5051315;28;20198;-85
2021/04/05 00:39:44;;;;;;;17.55;11.43;;;;;;;;;;5042279;28;20205;-84
2021/04/05 00:42:10;;;;;;;24.05;12.23;;;;;;;;;;5037362;28;20235;-84
2021/04/05 00:44:36;;;;;;;18.25;11.93;;;;;;;;;;5045627;28;20263;-83
2021/04/05 00:47:02;;;;;;;21.00;13.00;;;;;;;;;;5036948;28;20261;-85
2021/04/05 00:49:28;;;;;;;17.92;10.95;;;;;;;;;;5040599;28;20189;-84
2021/04/05 00:51:54;;;;;;;21.73;12.02;;;;;;;;;;5040419;28;20189;-85
2021/04/05 00:54:21;;;;;;;22.35;13.75;;;;;;;;;;5054153;28;20185;-85
2021/04/05 00:56:48;;;;;;;19.50;12.48;;;;;;;;;;5028183;28;20181;-84
2021/04/05 00:59:14;;;;;;;20.60;12.10;;;;;;;;;;5043140;28;20201;-84
2021/04/05 01:01:40;;;;;;;19.80;12.65;;;;;;;;;;5043679;28;20201;-85
2021/04/05 01:04:06;;;;;;;17.77;11.15;;;;;;;;;;5038039;28;20318;-84
2021/04/05 01:06:33;;;;;;;23.55;11.48;;;;;;;;;;5056746;28;20173;-84
2021/04/05 01:08:59;;;;;;;18.17;12.32;;;;;;;;;;5043076;28;20200;-84
2021/04/05 01:11:27;;;;;;;22.75;12.93;;;;;;;;;;5039691;28;20649;-84
2021/04/05 01:13:54;;;;;;;15.80;11.65;;;;;;;;;;5046694;28;20217;-84
2021/04/05 01:16:20;;;;;;;17.70;12.02;;;;;;;;;;5030379;28;20186;-85
2021/04/05 01:18:46;;;;;;;22.00;12.80;;;;;;;;;;5053645;28;20273;-84
2021/04/05 01:21:12;;;;;;;22.50;12.10;;;;;;;;;;5041748;28;20185;-85
2021/04/05 01:23:39;;;;;;;19.77;12.43;;;;;;;;;;5042294;28;20178;-85
2021/04/05 01:26:05;;;;;;;20.38;12.98;;;;;;;;;;5036369;28;20174;-85
2021/04/05 01:28:31;;;;;;;20.80;11.30;;;;;;;;;;5034288;28;20198;-84
2021/04/05 01:30:58;;;;;;;19.95;13.23;;;;;;;;;;5047138;28;20182;-85
2021/04/05 01:33:32;;;;;;;22.13;12.45;;;;;;;;;;5038457;28;20195;-83
2021/04/05 01:36:01;;;;;;;23.52;12.90;;;;;;;;;;5027466;28;20234;-84
2021/04/05 01:38:26;;;;;;;21.45;11.70;;;;;;;;;;5053772;28;20209;-84
2021/04/05 01:40:54;;;;;;;15.77;11.47;;;;;;;;;;5031567;28;20167;-85
2021/04/05 01:43:21;;;;;;;18.23;12.07;;;;;;;;;;5030550;28;20460;-84
2021/04/05 01:45:47;;;;;;;22.40;11.88;;;;;;;;;;5028993;28;20646;-84
2021/04/05 01:48:14;;;;;;;18.17;12.27;;;;;;;;;;5051706;28;20194;-84
2021/04/05 01:50:40;;;;;;;24.95;11.98;;;;;;;;;;5047007;28;20181;-83
2021/04/05 01:53:06;;;;;;;21.45;12.32;;;;;;;;;;5031798;28;20181;-84
2021/04/05 01:55:33;;;;;;;19.63;11.32;;;;;;;;;;5028885;28;20214;-84
2021/04/05 01:58:00;;;;;;;21.30;11.38;;;;;;;;;;5044797;28;20220;-84
2021/04/05 02:00:29;;;;;;;18.33;11.85;;;;;;;;;;5052735;28;20178;-84
2021/04/05 02:02:56;;;;;;;20.90;11.25;;;;;;;;;;5043204;28;20265;-84
2021/04/05 02:05:23;;;;;;;22.98;12.32;;;;;;;;;;5037778;28;20178;-84
2021/04/05 02:07:50;;;;;;;19.70;11.00;;;;;;;;;;5041242;28;20185;-84
2021/04/05 02:10:18;;;;;;;18.20;11.60;;;;;;;;;;5038782;28;20249;-84
2021/04/05 02:12:44;;;;;;;16.67;10.90;;;;;;;;;;5040389;28;20196;-84
2021/04/05 02:15:11;;;;;;;18.13;10.20;;;;;;;;;;5052018;28;20202;-84
2021/04/05 02:17:38;;;;;;;22.77;11.65;;;;;;;;;;5052024;28;20258;-84
2021/04/05 02:20:12;;;;;;;24.17;11.93;;;;;;;;;;5029313;28;20186;-84
2021/04/05 02:23:04;;;;;;;20.40;11.07;;;;;;;;;;5044346;28;20190;-84
2021/04/05 02:25:31;;;;;;;20.48;11.50;;;;;;;;;;5028916;28;20288;-82
2021/04/05 02:27:57;;;;;;;23.27;10.95;;;;;;;;;;5028868;28;20243;-83
2021/04/05 02:30:27;;;;;;;20.77;11.30;;;;;;;;;;5052357;28;20186;-84
2021/04/05 02:32:54;;;;;;;24.55;11.35;;;;;;;;;;5043888;28;20245;-84
2021/04/05 02:35:21;;;;;;;20.77;11.43;;;;;;;;;;5028808;28;20185;-84
2021/04/05 02:37:47;;;;;;;19.63;11.48;;;;;;;;;;5037654;28;20255;-84
2021/04/05 02:40:14;;;;;;;18.23;12.40;;;;;;;;;;5034020;28;20550;-84
2021/04/05 02:42:40;;;;;;;21.58;11.93;;;;;;;;;;5039396;28;20182;-84
2021/04/05 02:45:07;;;;;;;23.35;13.50;;;;;;;;;;5026144;28;20228;-83
2021/04/05 02:47:34;;;;;;;18.33;10.63;;;;;;;;;;5042116;28;20219;-84
2021/04/05 02:50:00;;;;;;;19.95;10.45;;;;;;;;;;5029265;28;20182;-84
2021/04/05 02:52:27;;;;;;;20.90;12.15;;;;;;;;;;5044882;28;20190;-83
2021/04/05 02:54:53;;;;;;;19.38;13.05;;;;;;;;;;5038139;28;20173;-84
2021/04/05 02:57:19;;;;;;;20.30;12.52;;;;;;;;;;5052167;28;20181;-84
2021/04/05 02:59:45;;;;;;;21.00;11.05;;;;;;;;;;5057882;28;20659;-84
2021/04/05 03:02:11;;;;;;;21.33;11.10;;;;;;;;;;5048023;28;20167;-83
2021/04/05 03:04:37;;;;;;;19.83;11.30;;;;;;;;;;5028979;28;20187;-84
2021/04/05 03:07:03;;;;;;;24.10;11.05;;;;;;;;;;5028196;28;20208;-84
2021/04/05 03:09:29;;;;;;;16.98;11.13;;;;;;;;;;5030968;28;20198;-82
2021/04/05 03:11:57;;;;;;;21.52;10.63;;;;;;;;;;5027789;28;20181;-84
2021/04/05 03:14:24;;;;;;;21.35;11.13;;;;;;;;;;5045349;28;20177;-84
2021/04/05 03:16:51;;;;;;;17.02;9.55;;;;;;;;;;5038139;28;20736;-83
2021/04/05 03:19:18;;;;;;;19.90;10.60;;;;;;;;;;5038545;28;20671;-83
2021/04/05 03:21:44;;;;;;;19.40;11.20;;;;;;;;;;5058061;28;20181;-83
2021/04/05 03:24:11;;;;;;;19.73;12.00;;;;;;;;;;5054143;28;20178;-84
2021/04/05 03:26:37;;;;;;;18.88;10.50;;;;;;;;;;5041924;28;20178;-84
2021/04/05 03:29:04;;;;;;;18.13;10.77;;;;;;;;;;5054024;28;20185;-84
2021/04/05 03:31:34;;;;;;;17.98;10.60;;;;;;;;;;5039681;28;20217;-84
2021/04/05 03:34:05;;;;;;;19.88;11.35;;;;;;;;;;5040673;28;20201;-83
2021/04/05 03:36:34;;;;;;;19.80;11.63;;;;;;;;;;5030723;28;20181;-84
2021/04/05 03:39:00;;;;;;;29.30;12.10;;;;;;;;;;5052635;28;20217;-83
2021/04/05 03:41:45;;;;;;;24.92;10.35;;;;;;;;;;5040756;28;20259;-83
2021/04/05 03:44:22;;;;;;;15.48;9.95;;;;;;;;;;5041268;28;20214;-84
2021/04/05 03:46:49;;;;;;;21.25;10.20;;;;;;;;;;5047317;28;20186;-84
2021/04/05 03:49:18;;;;;;;18.88;9.82;;;;;;;;;;5031790;28;20214;-84
2021/04/05 03:51:45;;;;;;;16.15;8.43;;;;;;;;;;5031576;28;20213;-85
2021/04/05 03:54:13;;;;;;;16.65;8.77;;;;;;;;;;5028243;28;20186;-83
2021/04/05 03:56:41;;;;;;;16.88;10.13;;;;;;;;;;5049220;28;20307;-83
2021/04/05 03:59:12;;;;;;;16.95;9.10;;;;;;;;;;5037928;28;20197;-84
2021/04/05 04:01:46;;;;;;;14.60;7.80;;;;;;;;;;5045293;28;20211;-84
2021/04/05 04:04:17;;;;;;;19.23;10.00;;;;;;;;;;5041730;28;20174;-84
2021/04/05 04:09:25;;;;;;;17.60;10.68;;;;;;;;;;5042917;28;20197;-83
2021/04/05 04:11:52;;;;;;;19.08;9.73;;;;;;;;;;5046501;28;20284;-84
2021/04/05 04:14:19;;;;;;;20.95;9.80;;;;;;;;;;5039947;28;20179;-84
2021/04/05 04:16:45;;;;;;;21.73;9.40;;;;;;;;;;5031612;28;20194;-84
2021/04/05 04:19:12;;;;;;;17.30;9.05;;;;;;;;;;5032712;28;20569;-83
2021/04/05 04:21:40;;;;;;;13.43;8.15;;;;;;;;;;5056407;28;20382;-84
2021/04/05 04:24:08;;;;;;;17.23;9.40;;;;;;;;;;5037423;28;20178;-84
2021/04/05 04:26:34;;;;;;;17.70;9.18;;;;;;;;;;5043296;28;20233;-85
2021/04/05 04:29:00;;;;;;;15.05;9.10;;;;;;;;;;5042350;28;20220;-85
2021/04/05 04:31:26;;;;;;;18.02;9.00;;;;;;;;;;5036620;28;20245;-85
2021/04/05 04:33:53;;;;;;;20.88;8.82;;;;;;;;;;5048160;28;20197;-84
2021/04/05 04:36:26;;;;;;;17.65;9.32;;;;;;;;;;5053653;28;20194;-84
2021/04/05 04:38:53;;;;;;;15.38;8.85;;;;;;;;;;5049716;28;20201;-86
2021/04/05 04:41:23;;;;;;;16.65;9.45;;;;;;;;;;5042817;28;20178;-84
2021/04/05 04:43:53;;;;;;;15.65;9.20;;;;;;;;;;5036723;28;20186;-84
2021/04/05 04:46:19;;;;;;;16.45;9.80;;;;;;;;;;5035807;28;20198;-84
2021/04/05 04:48:45;;;;;;;17.17;8.20;;;;;;;;;;5033561;28;20186;-83
2021/04/05 04:51:11;;;;;;;15.98;8.40;;;;;;;;;;5036976;28;20498;-84
2021/04/05 04:53:37;;;;;;;16.58;9.00;;;;;;;;;;5048837;28;20182;-84
2021/04/05 04:56:03;;;;;;;20.33;8.25;;;;;;;;;;5037551;28;20175;-83
2021/04/05 04:58:30;;;;;;;16.48;8.60;;;;;;;;;;5031139;28;20282;-83
2021/04/05 05:00:56;;;;;;;18.17;8.43;;;;;;;;;;5030893;28;20188;-83
2021/04/05 05:03:22;;;;;;;14.73;9.60;;;;;;;;;;5027888;28;20242;-84
2021/04/05 05:05:50;;;;;;;16.13;8.38;;;;;;;;;;5045169;28;20544;-82
2021/04/05 05:08:16;;;;;;;16.42;10.18;;;;;;;;;;5030581;28;20190;-83
2021/04/05 05:10:43;;;;;;;10.65;7.75;;;;;;;;;;5033526;28;20190;-83
2021/04/05 05:13:09;;;;;;;17.55;8.88;;;;;;;;;;5030931;28;20186;-83
2021/04/05 05:15:35;;;;;;;15.93;7.88;;;;;;;;;;5041222;28;20193;-85
2021/04/05 05:18:02;;;;;;;24.10;8.90;;;;;;;;;;5026014;28;20260;-83
2021/04/05 05:20:28;;;;;;;17.52;7.15;;;;;;;;;;5038904;28;20460;-84
2021/04/05 05:22:57;;;;;;;19.55;9.95;;;;;;;;;;5048137;28;20511;-83
2021/04/05 05:25:24;;;;;;;15.82;8.85;;;;;;;;;;5034748;28;20177;-83
2021/04/05 05:28:10;;;;;;;21.08;9.00;;;;;;;;;;5055443;28;20197;-84
2021/04/05 05:30:37;;;;;;;16.10;9.88;;;;;;;;;;5027918;28;20336;-83
2021/04/05 05:33:06;;;;;;;21.42;8.63;;;;;;;;;;5040783;28;20200;-83
2021/04/05 05:35:32;;;;;;;12.52;8.00;;;;;;;;;;5055763;28;20174;-83
2021/04/05 05:38:02;;;;;;;13.25;8.40;;;;;;;;;;5034369;28;20561;-83
2021/04/05 05:40:29;;;;;;;17.42;9.30;;;;;;;;;;5045308;28;20194;-84
2021/04/05 05:42:58;;;;;;;18.25;10.02;;;;;;;;;;5045403;28;20276;-84
2021/04/05 05:45:29;;;;;;;14.63;8.88;;;;;;;;;;5053585;28;20218;-84
2021/04/05 05:48:04;;;;;;;14.93;8.20;;;;;;;;;;5042689;28;20184;-84
2021/04/05 05:50:42;;;;;;;19.33;9.00;;;;;;;;;;5039010;28;20173;-84
2021/04/05 05:53:27;;;;;;;16.77;10.02;;;;;;;;;;5036584;28;20185;-84
2021/04/05 05:56:02;;;;;;;16.90;8.80;;;;;;;;;;5035617;28;20185;-84
2021/04/05 05:58:49;;;;;;;17.95;8.77;;;;;;;;;;5044101;28;20227;-81
2021/04/05 06:01:25;;;;;;;20.67;9.52;;;;;;;;;;5036357;28;20205;-84
2021/04/05 06:03:57;;;;;;;16.70;8.80;;;;;;;;;;5034751;28;20182;-83
2021/04/05 06:06:29;;;;;;;19.55;9.75;;;;;;;;;;5053146;28;20267;-85
2021/04/05 06:09:01;;;;;;;16.20;9.35;;;;;;;;;;5043018;28;20209;-86
2021/04/05 06:11:35;;;;;;;20.70;9.95;;;;;;;;;;5029853;28;20178;-83
2021/04/05 06:14:03;;;;;;;18.00;10.80;;;;;;;;;;5035979;28;20186;-84
2021/04/05 06:16:34;;;;;;;19.77;9.77;;;;;;;;;;5028960;28;20197;-84
2021/04/05 06:19:00;;;;;;;17.30;9.52;;;;;;;;;;5028711;28;20215;-83
2021/04/05 06:21:35;;;;;;;21.37;9.83;;;;;;;;;;5053832;28;20273;-82
2021/04/05 06:24:03;;;;;;;15.05;9.20;;;;;;;;;;5026428;28;20487;-83
2021/04/05 06:26:38;;;;;;;18.17;9.50;;;;;;;;;;5036524;28;20185;-83
2021/04/05 06:29:07;;;;;;;19.95;9.23;;;;;;;;;;5034634;28;20272;-86
2021/04/05 06:31:45;;;;;;;14.63;8.23;;;;;;;;;;5033223;28;20190;-84
2021/04/05 06:34:17;;;;;;;13.18;8.57;;;;;;;;;;5045949;28;20233;-85
2021/04/05 06:36:57;;;;;;;15.85;8.77;;;;;;;;;;5055457;28;20259;-85
2021/04/05 06:39:27;;;;;;;14.65;8.68;;;;;;;;;;5030465;28;20214;-85
2021/04/05 06:41:56;;;;;;;19.35;9.45;;;;;;;;;;5043317;28;20264;-86
2021/04/05 06:44:31;;;;;;;15.45;9.68;;;;;;;;;;5028996;28;20646;-85
2021/04/05 06:47:08;;;;;;;14.35;9.13;;;;;;;;;;5052652;28;20181;-84
2021/04/05 06:49:34;;;;;;;17.63;9.57;;;;;;;;;;5032627;28;20245;-85
2021/04/05 06:52:00;;;;;;;15.63;8.52;;;;;;;;;;5054090;28;20255;-83
2021/04/05 06:54:45;;;;;;;14.83;9.87;;;;;;;;;;5053679;28;20213;-86
2021/04/05 06:57:46;;;;;;;17.70;7.88;;;;;;;;;;5035420;28;20436;-86
2021/04/05 07:00:15;;;;;;;14.30;9.32;;;;;;;;;;5020059;28;20190;-84
2021/04/05 07:03:00;;;;;;;15.75;9.98;;;;;;;;;;5020655;28;20269;-83
2021/04/05 07:05:38;;;;;;;16.42;8.77;;;;;;;;;;5019651;28;20221;-85
2021/04/05 07:08:19;;;;;;;16.00;9.73;;;;;;;;;;5012594;28;20770;-83
2021/04/05 07:10:46;;;;;;;16.05;10.15;;;;;;;;;;5018008;28;20190;-86
2021/04/05 07:13:27;;;;;;;23.70;11.05;;;;;;;;;;5016179;28;20718;-83
2021/04/05 07:15:59;;;;;;;16.88;10.80;;;;;;;;;;5019600;28;20761;-84
2021/04/05 07:18:44;;;;;;;17.13;9.98;;;;;;;;;;5020106;28;20214;-84
2021/04/05 07:21:13;;;;;;;15.85;11.27;;;;;;;;;;5020321;28;20207;-83
2021/04/05 07:23:39;;;;;;;23.23;10.82;;;;;;;;;;5021335;28;20186;-83
2021/04/05 07:26:14;;;;;;;17.67;9.33;;;;;;;;;;4996921;28;20171;-83
2021/04/05 07:28:49;;;;;;;16.70;10.40;;;;;;;;;;5019997;28;20445;-83
2021/04/05 07:31:17;;;;;;;16.05;10.40;;;;;;;;;;5020131;28;20512;-82
2021/04/05 07:33:45;;;;;;;17.67;11.25;;;;;;;;;;5025381;28;20208;-83
2021/04/05 07:36:16;;;;;;;20.45;10.70;;;;;;;;;;5040420;28;20209;-85
2021/04/05 07:38:51;;;;;;;14.13;9.80;;;;;;;;;;5048950;28;20206;-86
2021/04/05 07:41:31;;;;;;;20.45;10.30;;;;;;;;;;5042694;28;20242;-85
2021/04/05 07:44:15;;;;;;;20.13;11.45;;;;;;;;;;5041434;28;20182;-85
2021/04/05 07:46:49;;;;;;;17.80;11.10;;;;;;;;;;5055838;28;20208;-85
2021/04/05 07:49:23;;;;;;;25.00;10.20;;;;;;;;;;5035338;28;20253;-84
2021/04/05 07:51:55;;;;;;;18.55;11.60;;;;;;;;;;5053664;28;20198;-83
2021/04/05 07:54:23;;;;;;;16.95;10.82;;;;;;;;;;5036827;28;20190;-84
2021/04/05 07:56:50;;;;;;;20.77;12.00;;;;;;;;;;5042846;28;20268;-85
2021/04/05 07:59:19;;;;;;;19.73;11.05;;;;;;;;;;5054683;28;20209;-86
2021/04/05 08:01:49;;;;;;;28.50;13.20;;;;;;;;;;5039829;28;20178;-84
2021/04/05 08:04:21;;;;;;;25.27;14.02;;;;;;;;;;5042357;28;20186;-84
2021/04/05 08:06:53;;;;;;;22.48;12.10;;;;;;;;;;5028828;28;20209;-84
2021/04/05 08:09:21;;;;;;;20.85;10.55;;;;;;;;;;5042147;28;20213;-85
2021/04/05 08:12:02;;;;;;;29.98;13.73;;;;;;;;;;5046308;28;20185;-83
2021/04/05 08:14:38;;;;;;;31.40;18.60;;;;;;;;;;5031108;28;20636;-84
2021/04/05 08:17:04;;;;;;;23.05;12.25;;;;;;;;;;5033091;28;20197;-85
2021/04/05 08:19:39;;;;;;;21.17;11.23;;;;;;;;;;5038026;28;20205;-84
2021/04/05 08:22:16;;;;;;;26.40;11.90;;;;;;;;;;5038343;28;20809;-85
2021/04/05 08:24:45;;;;;;;17.40;12.07;;;;;;;;;;5034468;28;20201;-84
2021/04/05 08:27:19;;;;;;;20.40;11.68;;;;;;;;;;5046498;28;20185;-83
2021/04/05 08:29:55;;;;;;;18.88;11.57;;;;;;;;;;5044827;28;20208;-84
2021/04/05 08:32:33;;;;;;;22.55;12.45;;;;;;;;;;5044444;28;20174;-84
2021/04/05 08:35:05;;;;;;;23.45;12.80;;;;;;;;;;5037059;28;20557;-83
2021/04/05 08:37:37;;;;;;;26.33;12.07;;;;;;;;;;5032674;28;20550;-84
2021/04/05 08:40:11;;;;;;;24.02;11.50;;;;;;;;;;5040919;28;20467;-84
2021/04/05 08:42:40;;;;;;;23.73;12.32;;;;;;;;;;5043065;28;20198;-86
2021/04/05 08:45:15;;;;;;;20.40;11.80;;;;;;;;;;5039954;28;20252;-81
2021/04/05 08:47:43;;;;;;;15.98;12.13;;;;;;;;;;5042003;28;20169;-83
2021/04/05 08:50:12;;;;;;;22.15;12.75;;;;;;;;;;5044426;28;20185;-82
2021/04/05 08:52:45;;;;;;;15.13;10.95;;;;;;;;;;5045757;28;20182;-84
2021/04/05 08:55:21;;;;;;;20.35;11.48;;;;;;;;;;5047824;28;20189;-83
2021/04/05 08:57:49;;;;;;;22.60;12.18;;;;;;;;;;5045308;28;20185;-84
2021/04/05 09:00:19;;;;;;;22.67;11.80;;;;;;;;;;5047406;28;20185;-82
2021/04/05 09:03:00;;;;;;;18.83;12.00;;;;;;;;;;5062935;28;20193;-82
2021/04/05 09:05:30;;;;;;;21.48;11.57;;;;;;;;;;5063034;28;20181;-84
2021/04/05 09:08:06;;;;;;;19.20;13.20;;;;;;;;;;5043613;28;20173;-84
2021/04/05 09:11:08;;;;;;;24.25;13.00;;;;;;;;;;5060496;28;20606;-85
2021/04/05 09:13:44;;;;;;;19.27;12.65;;;;;;;;;;5041911;28;20219;-82
2021/04/05 09:16:24;;;;;;;16.20;11.43;;;;;;;;;;5043212;28;20651;-87
2021/04/05 09:28:24;;;;;;;12.77;9.95;;;;;;;;;;5041336;28;20193;-83
2021/04/05 09:31:09;;;;;;;20.02;10.23;;;;;;;;;;5057313;28;20266;-83
2021/04/05 09:33:57;;;;;;;20.25;10.80;;;;;;;;;;5048037;28;20192;-84
2021/04/05 09:36:43;;;;;;;21.08;11.50;;;;;;;;;;5046014;28;20209;-83
2021/04/05 09:40:01;;;;;;;;;;;;;;;;;;;;;
2021/04/05 09:42:45;;;;;;;18.65;11.25;;;;;;;;;;5001184;28;20279;-86
2021/04/05 09:45:15;;;;;;;19.92;11.15;;;;;;;;;;5041159;28;20218;-84
2021/04/05 09:47:54;;;;;;;19.10;12.07;;;;;;;;;;5028215;28;20159;-84
2021/04/05 09:50:38;;;;;;;16.02;10.95;;;;;;;;;;5040124;28;20182;-87
2021/04/05 09:53:10;;;;;;;17.48;12.20;;;;;;;;;;5051769;28;20186;-86
2021/04/05 09:55:37;;;;;;;20.75;11.35;;;;;;;;;;5038496;28;20185;-85
2021/04/05 09:58:25;;;;;;;14.38;10.85;;;;;;;;;;5034397;28;20216;-84
2021/04/05 10:00:54;;;;;;;16.67;10.88;;;;;;;;;;5036736;28;20182;-84
2021/04/05 10:03:21;;;;;;;17.45;10.50;;;;;;;;;;5052903;28;20229;-85
2021/04/05 10:05:48;;;;;;;15.13;10.13;;;;;;;;;;5044507;28;20592;-85
2021/04/05 10:08:27;;;;;;;15.90;11.63;;;;;;;;;;5039890;28;20193;-83
2021/04/05 10:10:55;;;;;;;17.08;9.80;;;;;;;;;;5032497;28;20225;-84
2021/04/05 10:13:23;;;;;;;14.05;9.55;;;;;;;;;;5038351;28;20192;-83
2021/04/05 10:15:53;;;;;;;20.15;11.50;;;;;;;;;;5049224;28;20189;-82
2021/04/05 10:18:19;;;;;;;13.55;9.70;;;;;;;;;;5054683;28;20214;-86
2021/04/05 10:20:50;;;;;;;15.90;11.23;;;;;;;;;;5044293;28;20173;-83
2021/04/05 10:23:28;;;;;;;16.50;10.90;;;;;;;;;;5030777;28;20216;-83
2021/04/05 10:25:58;;;;;;;15.63;10.63;;;;;;;;;;5031493;28;20178;-85
2021/04/05 10:28:25;;;;;;;14.35;11.65;;;;;;;;;;5044390;28;20652;-86
2021/04/05 10:30:57;;;;;;;9.90;8.15;;;;;;;;;;5044530;28;20182;-87
2021/04/05 10:33:27;;;;;;;12.05;8.07;;;;;;;;;;5052462;28;20214;-86
2021/04/05 10:35:55;;;;;;;13.43;9.20;;;;;;;;;;5044163;28;20196;-84
2021/04/05 10:38:22;;;;;;;13.77;9.20;;;;;;;;;;5036391;28;20264;-84
2021/04/05 10:40:50;;;;;;;14.05;10.63;;;;;;;;;;5034812;28;20174;-85
2021/04/05 10:43:22;;;;;;;12.13;8.88;;;;;;;;;;5045824;28;20232;-85
2021/04/05 10:45:52;;;;;;;15.32;9.70;;;;;;;;;;5037999;28;20247;-84
2021/04/05 10:48:26;;;;;;;13.77;9.90;;;;;;;;;;5051720;28;20205;-84
2021/04/05 10:51:01;;;;;;;11.30;8.75;;;;;;;;;;5043392;28;20181;-86
2021/04/05 10:53:29;;;;;;;16.60;9.88;;;;;;;;;;5038498;28;20224;-86
2021/04/05 10:55:58;;;;;;;25.70;10.75;;;;;;;;;;5050470;28;20240;-84
2021/04/05 10:58:28;;;;;;;15.73;8.90;;;;;;;;;;5034615;28;20206;-83
2021/04/05 11:00:56;;;;;;;16.45;9.70;;;;;;;;;;5043723;28;20261;-84
2021/04/05 11:03:26;;;;;;;16.42;10.52;;;;;;;;;;5052592;28;20218;-85
2021/04/05 11:05:56;;;;;;;18.35;9.27;;;;;;;;;;5043153;28;20173;-82
2021/04/05 11:08:24;;;;;;;19.20;12.18;;;;;;;;;;5035550;28;20177;-82
2021/04/05 11:10:59;;;;;;;16.80;11.93;;;;;;;;;;5038798;28;20311;-81
2021/04/05 11:13:26;;;;;;;13.48;9.75;;;;;;;;;;5039343;28;20559;-88
2021/04/05 11:15:53;;;;;;;20.98;12.35;;;;;;;;;;5053991;28;20186;-83
2021/04/05 11:18:22;;;;;;;14.90;11.07;;;;;;;;;;5036149;28;20213;-84
2021/04/05 11:20:50;;;;;;;16.15;10.77;;;;;;;;;;5043561;28;20166;-82
2021/04/05 11:23:17;;;;;;;31.45;24.35;;;;;;;;;;5029164;28;20170;-85
2021/04/05 11:25:44;;;;;;;17.50;11.35;;;;;;;;;;5033730;28;20241;-83
2021/04/05 11:28:26;;;;;;;23.52;14.40;;;;;;;;;;5039880;28;20311;-84
2021/04/05 11:30:58;;;;;;;16.75;11.50;;;;;;;;;;5037674;28;20205;-81
2021/04/05 11:33:26;;;;;;;16.55;10.70;;;;;;;;;;5039447;28;20198;-84
2021/04/05 11:35:53;;;;;;;14.40;10.85;;;;;;;;;;5036498;28;20184;-84
2021/04/05 11:38:21;;;;;;;9.85;5.82;;;;;;;;;;5040195;28;20257;-85
2021/04/05 11:40:47;;;;;;;11.80;4.50;;;;;;;;;;5051346;28;20181;-83
2021/04/05 11:43:21;;;;;;;7.10;4.15;;;;;;;;;;5043897;28;20185;-87
2021/04/05 11:45:49;;;;;;;12.50;4.75;;;;;;;;;;5043096;28;20221;-85
2021/04/05 11:48:18;;;;;;;8.15;3.83;;;;;;;;;;5055889;28;20209;-82
2021/04/05 11:50:44;;;;;;;10.65;3.72;;;;;;;;;;5045784;28;20178;-84
2021/04/05 11:53:17;;;;;;;8.43;4.10;;;;;;;;;;5046018;28;20596;-83
2021/04/05 11:55:43;;;;;;;10.13;4.63;;;;;;;;;;5042043;28;20182;-85
2021/04/05 11:58:14;;;;;;;6.75;4.20;;;;;;;;;;5042198;28;20288;-86
2021/04/05 12:00:53;;;;;;;11.00;4.60;;;;;;;;;;5058989;28;20185;-84
2021/04/05 12:03:28;;;;;;;7.82;4.72;;;;;;;;;;5054596;28;20201;-84
2021/04/05 12:06:06;;;;;;;10.60;4.85;;;;;;;;;;5045976;28;20188;-83
2021/04/05 12:08:38;;;;;;;10.75;4.43;;;;;;;;;;5040525;28;20181;-83
2021/04/05 12:11:06;;;;;;;12.93;6.40;;;;;;;;;;5042121;28;20193;-85
2021/04/05 12:13:38;;;;;;;14.73;6.80;;;;;;;;;;5037192;28;20190;-84
2021/04/05 12:16:05;;;;;;;13.52;5.30;;;;;;;;;;5040641;28;20186;-83
2021/04/05 12:18:31;;;;;;;10.40;5.63;;;;;;;;;;5055616;28;20214;-85
2021/04/05 12:21:01;;;;;;;8.48;4.20;;;;;;;;;;5045040;28;20192;-85
2021/04/05 12:23:27;;;;;;;12.75;5.30;;;;;;;;;;5039428;28;20185;-86
2021/04/05 12:25:54;;;;;;;9.77;5.18;;;;;;;;;;5041445;28;20185;-84
2021/04/05 12:28:21;;;;;;;7.97;4.15;;;;;;;;;;5037601;28;20190;-84
2021/04/05 12:30:47;;;;;;;13.20;6.47;;;;;;;;;;5042162;28;20189;-84
2021/04/05 12:33:18;;;;;;;11.18;4.97;;;;;;;;;;5036878;28;20185;-83
2021/04/05 12:35:44;;;;;;;15.13;4.80;;;;;;;;;;5032562;28;20181;-83
2021/04/05 12:38:11;;;;;;;12.10;5.60;;;;;;;;;;5040824;28;20528;-85
2021/04/05 12:40:39;;;;;;;8.02;4.40;;;;;;;;;;5043277;28;20269;-84
2021/04/05 12:43:07;;;;;;;9.52;4.63;;;;;;;;;;5038559;28;20205;-85
2021/04/05 12:45:34;;;;;;;12.93;6.05;;;;;;;;;;5035570;28;20221;-80
2021/04/05 12:48:02;;;;;;;9.85;5.00;;;;;;;;;;5043247;28;20196;-85
2021/04/05 12:50:32;;;;;;;10.23;4.47;;;;;;;;;;5031384;28;20171;-88
2021/04/05 12:53:00;;;;;;;13.13;4.75;;;;;;;;;;5051197;28;20717;-87
2021/04/05 12:55:28;;;;;;;9.70;4.45;;;;;;;;;;5040834;28;20190;-87
2021/04/05 12:57:58;;;;;;;7.82;4.30;;;;;;;;;;5039650;28;20451;-86
2021/04/05 13:00:25;;;;;;;8.50;4.25;;;;;;;;;;5054785;28;20193;-87
2021/04/05 13:02:56;;;;;;;15.27;5.60;;;;;;;;;;5045132;28;20177;-85
2021/04/05 13:05:25;;;;;;;10.20;4.53;;;;;;;;;;5030340;28;20406;-82
2021/04/05 13:07:57;;;;;;;8.75;3.85;;;;;;;;;;5049431;28;20182;-84
2021/04/05 13:10:26;;;;;;;6.90;4.80;;;;;;;;;;5053528;28;20182;-85
2021/04/05 13:12:57;;;;;;;9.48;5.93;;;;;;;;;;5054916;28;20217;-86
2021/04/05 13:15:28;;;;;;;9.95;5.25;;;;;;;;;;5031770;28;20249;-86
2021/04/05 13:17:55;;;;;;;10.18;4.78;;;;;;;;;;5038466;28;20265;-84
2021/04/05 13:20:22;;;;;;;9.02;4.50;;;;;;;;;;5054353;28;20193;-83
2021/04/05 13:22:55;;;;;;;16.50;5.32;;;;;;;;;;5039055;28;20272;-83
2021/04/05 13:25:28;;;;;;;12.57;5.40;;;;;;;;;;5032003;28;20190;-84
2021/04/05 13:27:55;;;;;;;9.98;4.72;;;;;;;;;;5055999;28;20209;-86
2021/04/05 13:30:31;;;;;;;10.82;4.43;;;;;;;;;;5056481;28;20193;-88
2021/04/05 13:32:58;;;;;;;6.10;4.00;;;;;;;;;;5040885;28;20174;-84
2021/04/05 13:35:26;;;;;;;9.32;4.60;;;;;;;;;;5040642;28;20178;-85
2021/04/05 13:37:57;;;;;;;14.85;5.20;;;;;;;;;;5038994;28;20184;-85
2021/04/05 13:40:25;;;;;;;10.35;5.03;;;;;;;;;;5035716;28;20245;-83
2021/04/05 13:42:53;;;;;;;9.68;5.00;;;;;;;;;;5040167;28;20185;-84
2021/04/05 13:45:20;;;;;;;12.15;6.65;;;;;;;;;;5041779;28;20297;-88
2021/04/05 13:47:52;;;;;;;7.45;4.28;;;;;;;;;;5046557;28;20197;-84
2021/04/05 13:50:19;;;;;;;9.18;4.75;;;;;;;;;;5055868;28;20186;-85
2021/04/05 13:52:51;;;;;;;10.50;7.40;;;;;;;;;;5035817;28;20174;-87
2021/04/05 13:55:22;;;;;;;11.60;4.97;;;;;;;;;;5054513;28;20209;-86
2021/04/05 13:57:50;;;;;;;15.60;4.97;;;;;;;;;;5027458;28;20193;-82
2021/04/05 14:00:21;;;;;;;6.07;4.30;;;;;;;;;;5040025;28;20182;-82
2021/04/05 14:02:54;;;;;;;7.55;5.30;;;;;;;;;;5041936;28;20188;-81
2021/04/05 14:05:21;;;;;;;7.88;4.07;;;;;;;;;;5041564;28;20574;-84
2021/04/05 14:07:48;;;;;;;13.73;5.50;;;;;;;;;;5033706;28;20191;-81
2021/04/05 14:10:22;;;;;;;14.40;6.22;;;;;;;;;;5037897;28;20606;-85
2021/04/05 14:12:48;;;;;;;7.15;4.25;;;;;;;;;;5041171;28;20189;-84
2021/04/05 14:15:15;;;;;;;9.93;4.65;;;;;;;;;;5057023;28;20173;-87
2021/04/05 16:19:17;;;;;;;16.30;6.70;;;;;;;;;;5050749;28;20601;-80
2021/04/05 16:21:54;;;;;;;13.38;6.80;;;;;;;;;;5068827;28;20275;-81
2021/04/05 16:24:29;;;;;;;10.65;5.57;;;;;;;;;;5070611;28;20715;-83
2021/04/05 16:27:01;;;;;;;13.65;6.20;;;;;;;;;;5069135;28;20178;-82
2021/04/05 16:29:29;;;;;;;10.10;5.65;;;;;;;;;;5055209;28;20173;-82
2021/04/05 16:31:57;;;;;;;11.80;6.28;;;;;;;;;;5054151;28;20209;-81
2021/04/05 16:34:25;;;;;;;10.02;6.53;;;;;;;;;;5060082;28;20200;-81
2021/04/05 16:37:17;;;;;;;8.02;6.88;;;;;;;;;;5054992;28;20196;-81
2021/04/05 16:39:45;;;;;;;10.90;4.35;;;;;;;;;;5047061;28;20197;-81
2021/04/05 16:42:14;;;;;;;9.07;5.63;;;;;;;;;;5055666;28;20189;-81
2021/04/05 16:44:42;;;;;;;10.27;6.10;;;;;;;;;;5059168;28;20172;-81
2021/04/05 16:47:10;;;;;;;9.68;5.05;;;;;;;;;;5057115;28;20169;-81
2021/04/05 16:49:37;;;;;;;10.23;4.55;;;;;;;;;;5055545;28;20244;-82
2021/04/05 16:52:08;;;;;;;6.95;4.50;;;;;;;;;;5051865;28;20189;-83
2021/04/05 16:54:36;;;;;;;9.85;5.75;;;;;;;;;;5062134;28;20181;-82
2021/04/05 16:57:02;;;;;;;7.47;6.28;;;;;;;;;;5073357;28;20181;-81